Picayune, MS

01:49 CDT le 02 septembre 2014 (GMT -0500)
Hide_A_Way Lake ~OWX | Change Station
CLOSE
Current Station
Stations météorologiques personnelles
Location: Carriere, MS
Altitude: 100 ft
Stations météo à proximité

Alt. 100 ft 30.58 °N, 89.65 °W | Updated 8 seconds ago

Ciel dégagé
Ciel dégagé
76.1 ° F
Paraît 76 ° F
N
0.0
Vent Variable Vent de ESE
Gusts 0.0 mph

Aujourd'hui
Haut(e) -- | Bas -- ° F
--% Risque de précip.
Hier
Haut(e) -- | Bas -- ° F
Precip. -- pouce
6:35 AM 7:20 PM
Lune montante, 48% visible
Pression 30.01 pouce
Visibilité 10.0 Miles terrestres
Nuages Ciel dégagé
indice de chaleur 76 ° F
Point de rosée 74 ° F
Humidité 92%
Précipitations 0.00 pouce
Profondeur de la couche neigeuse Non disponible.
UV 0.0 sur 12
Pollen 8.50 sur 12
Ozone Bon
PM2.5 Bon
Flu Activity Non disponible.
METAR KASD 020553Z AUTO 14003KT 10SM CLR 26/24 A3001 RMK AO2 SLP161 T02560239 10267 20250 403220239 56013

More Conditions Fewer Conditions

Pression 30.01 pouce
Visibilité 10.0 Miles terrestres
Nuages Ciel dégagé
indice de chaleur 76 ° F
Point de rosée 74 ° F
Humidité 92%
Précipitations 0.00 pouce
Profondeur de la couche neigeuse Non disponible.
UV 0.0 sur 12
Pollen 8.50 sur 12
Ozone Bon
PM2.5 Bon
Flu Activity Non disponible.
METAR KASD 020553Z AUTO 14003KT 10SM CLR 26/24 A3001 RMK AO2 SLP161 T02560239 10267 20250 403220239 56013

More Conditions Fewer Conditions

10-Day Weather Forecast

Almanac

Astronomie

Sep. 02, 2014 Lever Coucher
Temps réel 06:35 CDT 19:20 CDT
Crépuscule civil 06:11 CDT 19:44 CDT
Crépuscule nautique 05:42 CDT 20:13 CDT
Crépuscule astronomique 05:13 CDT 20:42 CDT
Lune 13:51 CDT Pas de coucher de lune
Durée de lumière visible 13h 33m
Longueur du jour
12h 44m
Tomorrow will be 1m 46s shorter.
Lune montante, 48% of the Moon is Illuminated
Aujourd'hui
Lune montante
Sep 2
Premier quartier
Sep 8
Pleine lune
Sep 15
Dernier quartier
Sep 24
Nouveau

Extrêmes aujourd'hui

State Highs State Lows

Community

WunderPhotos

Upload Photos

1,749,589 Photos téléchargées !

WunderBlogs® & News

Nearby

Qualité de l'air

  Qualité de l'air Indice de la qualité de l'air Polluant
Hier Bon
PM2.5
Hier Bon
OZONE
Actuel Bon
OZONE
Actuel Bon
PM2.5
mardi Moyen
PM2.5
mardi Bon
OZONE
mercredi Moyen
PM2.5
mercredi Bon
OZONE
jeudi Moyen
PM2.5
jeudi Bon
OZONE

Épaisseur de neige

Station Depth Altitude
Pas de nouvelles chutes de neige

Activité sismique

Ville Distance Mag. Time & Date
No recent earthquake activity has been reported nearby.
Minimum magnitude displayed is 2.5.

Températures des eaux côtières

Lieu Température
Aucun rapport de station

Stations météo à proximité